Time;durP1;ratioP1;P1;durP2;ratioP2;P2;SDS_P1;SDS_P2;PMS_P1;PMS_P2;Temp;Humidity;BMP_temperature;BMP_pressure;BME280_temperature;BME280_humidity;BME280_pressure;Samples;Min_cycle;Max_cycle;Signal;HPM_P1;HPM_P2
2023/07/06 00:01:45;;;;;;;4.07;3.70;;;18.00;99.90;;;;;;5032970;28;20471;-68
2023/07/06 00:04:14;;;;;;;3.63;3.43;;;18.00;99.90;;;;;;5033564;28;20421;-68
2023/07/06 00:06:40;;;;;;;3.00;2.80;;;18.00;99.90;;;;;;5031438;28;20544;-67
2023/07/06 00:09:06;;;;;;;3.60;3.40;;;18.00;99.90;;;;;;5015852;28;20508;-68
2023/07/06 00:11:37;;;;;;;3.30;3.10;;;18.00;99.90;;;;;;5014520;28;20513;-68
2023/07/06 00:14:08;;;;;;;4.27;3.97;;;18.00;99.90;;;;;;5033191;28;20807;-68
2023/07/06 00:16:35;;;;;;;4.10;3.70;;;18.00;99.90;;;;;;5019663;28;21022;-68
2023/07/06 00:19:01;;;;;;;3.90;3.70;;;18.00;99.90;;;;;;5032692;28;20471;-68
2023/07/06 00:21:27;;;;;;;4.27;3.90;;;18.00;99.90;;;;;;5032317;28;20421;-65
2023/07/06 00:23:54;;;;;;;3.70;3.50;;;18.00;99.90;;;;;;5032927;28;20417;-67
2023/07/06 00:26:20;;;;;;;4.03;3.57;;;18.00;99.90;;;;;;5016603;28;20807;-68
2023/07/06 00:28:50;;;;;;;4.37;3.97;;;18.00;99.90;;;;;;5031874;28;20421;-67
2023/07/06 00:31:31;;;;;;;3.97;3.77;;;18.00;99.90;;;;;;5013505;28;20473;-67
2023/07/06 00:34:02;;;;;;;4.10;3.80;;;18.00;99.90;;;;;;5031507;28;20452;-68
2023/07/06 00:36:32;;;;;;;4.20;3.90;;;18.00;99.90;;;;;;5031215;28;20428;-64
2023/07/06 00:39:02;;;;;;;4.70;3.80;;;18.00;99.90;;;;;;5033280;28;20776;-68
2023/07/06 00:41:28;;;;;;;4.60;4.30;;;18.10;99.90;;;;;;5031899;28;20919;-65
2023/07/06 00:43:55;;;;;;;4.53;4.13;;;18.10;99.90;;;;;;5031973;28;20582;-68
2023/07/06 00:46:29;;;;;;;5.63;4.10;;;18.10;99.90;;;;;;5032229;28;20425;-68
2023/07/06 00:48:56;;;;;;;4.23;3.73;;;18.10;99.90;;;;;;5032175;28;20424;-68
2023/07/06 00:51:29;;;;;;;4.67;4.33;;;18.10;99.90;;;;;;5032494;28;20412;-68
2023/07/06 00:54:01;;;;;;;4.27;4.00;;;18.00;99.90;;;;;;5031831;28;20451;-67
2023/07/06 00:56:34;;;;;;;4.17;3.87;;;18.10;99.90;;;;;;5031996;28;20432;-68
2023/07/06 00:59:05;;;;;;;4.50;4.20;;;18.00;99.90;;;;;;5032291;28;20428;-68
2023/07/06 01:01:37;;;;;;;4.33;3.97;;;18.00;99.90;;;;;;5014316;28;20551;-64
2023/07/06 01:04:06;;;;;;;4.27;3.97;;;18.00;99.90;;;;;;5032352;28;20555;-67
2023/07/06 01:06:37;;;;;;;4.50;4.10;;;18.00;99.90;;;;;;5030351;28;20425;-64
2023/07/06 01:09:04;;;;;;;4.63;4.33;;;18.00;99.90;;;;;;5032229;28;20410;-68
2023/07/06 01:11:31;;;;;;;4.30;4.00;;;18.00;99.90;;;;;;5032096;28;20420;-65
2023/07/06 01:13:58;;;;;;;4.47;4.17;;;17.90;99.90;;;;;;5031544;28;20604;-67
2023/07/06 01:16:33;;;;;;;4.87;4.47;;;17.90;99.90;;;;;;5012225;28;20466;-68
2023/07/06 01:19:21;;;;;;;4.87;4.47;;;17.90;99.90;;;;;;5022076;28;20443;-68
2023/07/06 01:22:22;;;;;;;3.93;3.73;;;17.90;99.90;;;;;;5023362;28;20493;-67
2023/07/06 01:25:12;;;;;;;13.83;5.50;;;17.90;99.90;;;;;;5012060;28;20418;-68
2023/07/06 01:27:49;;;;;;;4.27;3.97;;;17.90;99.90;;;;;;5011063;28;20430;-68
2023/07/06 01:30:24;;;;;;;4.60;4.20;;;17.90;99.90;;;;;;5031590;28;20413;-68
2023/07/06 01:33:02;;;;;;;4.60;4.30;;;17.80;99.90;;;;;;5022470;28;20422;-68
2023/07/06 01:35:39;;;;;;;4.30;4.00;;;17.80;99.90;;;;;;5012072;28;20446;-65
2023/07/06 01:38:06;;;;;;;4.63;4.33;;;17.80;99.90;;;;;;5005647;28;20436;-68
2023/07/06 01:40:34;;;;;;;3.97;3.70;;;17.80;99.90;;;;;;5019243;28;20503;-64
2023/07/06 01:42:59;;;;;;;4.23;3.93;;;17.70;99.90;;;;;;5025038;28;20417;-67
2023/07/06 01:45:25;;;;;;;5.07;4.67;;;17.70;99.90;;;;;;5013306;28;20752;-67
2023/07/06 01:47:52;;;;;;;5.20;4.30;;;17.70;99.90;;;;;;5000589;28;20187;-67
2023/07/06 01:50:23;;;;;;;4.20;3.90;;;17.70;99.90;;;;;;5012465;28;20182;-68
2023/07/06 01:53:17;;;;;;;6.20;3.90;;;17.70;99.90;;;;;;5012618;28;20456;-66
2023/07/06 01:55:52;;;;;;;4.60;4.30;;;17.70;99.90;;;;;;5014908;28;20405;-67
2023/07/06 01:58:35;;;;;;;4.23;3.97;;;17.70;99.90;;;;;;5016825;28;20798;-67
2023/07/06 02:01:09;;;;;;;4.30;4.00;;;17.60;99.90;;;;;;5015330;28;20446;-68
2023/07/06 02:03:38;;;;;;;4.67;4.37;;;17.60;99.90;;;;;;5015489;28;20436;-64
2023/07/06 02:06:07;;;;;;;5.80;4.43;;;17.60;99.90;;;;;;5015793;28;20422;-67
2023/07/06 02:08:33;;;;;;;4.63;4.40;;;17.50;99.90;;;;;;5015919;28;20961;-65
2023/07/06 02:11:01;;;;;;;4.53;4.20;;;17.50;99.90;;;;;;5015706;28;20457;-68
2023/07/06 02:13:27;;;;;;;4.80;4.50;;;17.40;99.90;;;;;;5015982;28;20449;-68
2023/07/06 02:15:53;;;;;;;4.87;4.57;;;17.40;99.90;;;;;;5024308;28;20517;-68
2023/07/06 02:18:19;;;;;;;4.57;4.23;;;17.40;99.90;;;;;;5003330;28;20533;-67
2023/07/06 02:20:47;;;;;;;4.30;4.00;;;17.40;99.90;;;;;;5015133;28;20262;-67
2023/07/06 02:23:13;;;;;;;14.07;4.63;;;17.30;99.90;;;;;;5010324;28;20419;-67
2023/07/06 02:25:41;;;;;;;4.47;4.07;;;17.20;99.90;;;;;;5023710;28;20429;-66
2023/07/06 02:28:08;;;;;;;4.50;4.10;;;17.20;99.90;;;;;;4996227;28;20426;-68
2023/07/06 02:30:34;;;;;;;4.87;4.57;;;17.20;99.90;;;;;;5018662;28;20431;-68
2023/07/06 02:33:01;;;;;;;4.70;4.40;;;17.10;99.90;;;;;;5032896;28;20420;-67
2023/07/06 02:35:27;;;;;;;4.87;4.47;;;17.10;99.90;;;;;;4994788;28;20542;-67
2023/07/06 02:37:54;;;;;;;4.53;4.20;;;17.10;99.90;;;;;;5000485;28;20521;-67
2023/07/06 02:40:20;;;;;;;5.00;4.60;;;17.00;99.90;;;;;;5001841;28;20425;-67
2023/07/06 02:42:46;;;;;;;5.33;4.80;;;17.00;99.90;;;;;;5014766;28;20402;-68
2023/07/06 02:45:11;;;;;;;4.93;4.40;;;17.00;99.90;;;;;;5014807;28;20422;-68
2023/07/06 02:47:38;;;;;;;4.63;4.33;;;17.00;99.90;;;;;;5009758;28;20717;-64
2023/07/06 02:50:10;;;;;;;5.10;4.70;;;17.00;99.90;;;;;;4995862;28;20180;-67
2023/07/06 02:52:37;;;;;;;4.00;3.70;;;17.00;99.90;;;;;;5028901;28;20417;-64
2023/07/06 02:55:04;;;;;;;4.63;4.33;;;17.00;99.90;;;;;;5012632;28;20549;-67
2023/07/06 02:57:31;;;;;;;4.87;4.43;;;17.00;99.90;;;;;;5008131;28;20456;-67
2023/07/06 02:59:57;;;;;;;4.90;4.60;;;17.00;99.90;;;;;;5014377;28;20410;-67
2023/07/06 03:02:23;;;;;;;4.97;4.57;;;16.90;99.90;;;;;;4998304;28;20776;-68
2023/07/06 03:04:51;;;;;;;4.77;4.43;;;16.90;99.90;;;;;;5016972;28;20786;-67
2023/07/06 03:07:18;;;;;;;4.87;4.57;;;16.90;99.90;;;;;;5012767;28;20187;-68
2023/07/06 03:09:44;;;;;;;5.73;5.03;;;16.90;99.90;;;;;;5012243;28;20444;-67
2023/07/06 03:12:10;;;;;;;4.63;4.27;;;16.80;99.90;;;;;;4995361;28;20411;-68
2023/07/06 03:14:36;;;;;;;4.83;4.53;;;16.80;99.90;;;;;;5007293;28;20736;-67
2023/07/06 03:17:01;;;;;;;5.10;4.70;;;16.80;99.90;;;;;;5033602;28;20163;-67
2023/07/06 03:19:27;;;;;;;5.20;4.80;;;16.80;99.90;;;;;;5033884;28;20182;-67
2023/07/06 03:21:58;;;;;;;5.40;4.90;;;16.80;99.90;;;;;;5031522;28;20236;-67
2023/07/06 03:24:24;;;;;;;5.00;4.67;;;16.70;99.90;;;;;;5034481;28;20253;-67
2023/07/06 03:26:52;;;;;;;4.80;4.50;;;16.70;99.90;;;;;;5030972;28;20455;-75
2023/07/06 03:29:17;;;;;;;5.07;4.67;;;16.70;99.90;;;;;;5032215;28;20436;-69
2023/07/06 03:31:45;;;;;;;5.03;4.73;;;16.70;99.90;;;;;;5032979;28;20429;-69
2023/07/06 03:34:11;;;;;;;5.10;4.80;;;16.70;99.90;;;;;;5034172;28;20231;-70
2023/07/06 03:36:38;;;;;;;5.20;4.90;;;16.70;99.90;;;;;;5034243;28;20475;-70
2023/07/06 03:39:05;;;;;;;6.03;5.20;;;16.70;99.90;;;;;;5032916;28;20413;-70
2023/07/06 03:41:31;;;;;;;5.43;5.03;;;16.70;99.90;;;;;;5033105;28;20424;-70
2023/07/06 03:43:58;;;;;;;6.00;5.60;;;16.60;99.90;;;;;;5032657;28;20425;-70
2023/07/06 03:46:36;;;;;;;5.60;5.20;;;16.60;99.90;;;;;;5033236;28;20178;-67
2023/07/06 03:49:03;;;;;;;6.27;5.80;;;16.60;99.90;;;;;;5022794;28;20441;-73
2023/07/06 03:51:30;;;;;;;6.50;5.93;;;16.60;99.90;;;;;;5032635;28;20433;-75
2023/07/06 03:53:56;;;;;;;5.53;5.10;;;16.60;99.90;;;;;;5032855;28;20444;-74
2023/07/06 03:56:27;;;;;;;5.40;5.00;;;16.60;99.90;;;;;;5033063;28;20496;-73
2023/07/06 03:59:02;;;;;;;6.90;6.20;;;16.60;99.90;;;;;;5032792;28;20416;-74
2023/07/06 04:01:32;;;;;;;6.17;5.77;;;16.60;99.90;;;;;;5031928;28;20422;-74
2023/07/06 04:03:58;;;;;;;5.10;4.80;;;16.60;99.90;;;;;;5033001;28;20740;-74
2023/07/06 04:06:26;;;;;;;7.17;5.20;;;16.70;99.90;;;;;;5031724;28;20425;-70
2023/07/06 04:08:53;;;;;;;5.40;5.00;;;16.60;99.90;;;;;;5031280;28;20503;-70
2023/07/06 04:11:19;;;;;;;7.10;5.83;;;16.60;99.90;;;;;;5032957;28;20435;-70
2023/07/06 04:13:45;;;;;;;5.23;4.83;;;16.70;99.90;;;;;;5032857;28;20467;-69
2023/07/06 04:16:18;;;;;;;4.73;4.33;;;16.70;99.90;;;;;;5032084;28;20549;-66
2023/07/06 04:18:44;;;;;;;6.03;5.17;;;16.70;99.90;;;;;;5033408;28;20200;-62
2023/07/06 04:21:19;;;;;;;5.43;5.03;;;16.70;99.90;;;;;;5033402;28;20453;-67
2023/07/06 04:23:49;;;;;;;6.30;5.70;;;16.70;99.90;;;;;;5032548;28;20421;-63
2023/07/06 04:26:16;;;;;;;5.53;5.20;;;16.70;99.90;;;;;;5032087;28;20978;-72
2023/07/06 04:28:42;;;;;;;6.83;4.87;;;16.80;99.90;;;;;;5032706;28;20424;-66
2023/07/06 04:31:10;;;;;;;6.00;5.40;;;16.80;99.90;;;;;;5031698;28;20421;-67
2023/07/06 04:33:36;;;;;;;5.93;5.43;;;16.80;99.90;;;;;;5032633;28;20416;-76
2023/07/06 04:36:03;;;;;;;14.93;8.37;;;16.80;99.90;;;;;;5032453;28;20405;-77
2023/07/06 04:38:29;;;;;;;6.20;5.70;;;17.10;99.90;;;;;;5032621;28;20409;-67
2023/07/06 04:40:56;;;;;;;6.67;6.07;;;17.40;99.90;;;;;;5032200;28;20512;-77
2023/07/06 04:43:22;;;;;;;7.27;6.67;;;17.70;99.90;;;;;;5031841;28;20748;-74
2023/07/06 04:45:48;;;;;;;6.68;6.22;;;17.90;99.90;;;;;;5031724;28;20420;-63
2023/07/06 04:48:16;;;;;;;6.73;6.23;;;18.20;99.90;;;;;;5032182;28;20186;-63
2023/07/06 04:50:43;;;;;;;7.03;6.17;;;18.20;99.90;;;;;;5029412;28;20286;-63
2023/07/06 04:53:09;;;;;;;6.47;5.97;;;18.20;99.90;;;;;;5029903;28;20432;-63
2023/07/06 04:55:36;;;;;;;5.93;5.53;;;18.00;99.90;;;;;;5031380;28;20460;-63
2023/07/06 04:58:05;;;;;;;7.53;6.83;;;17.90;99.90;;;;;;5031095;28;20515;-63
2023/07/06 05:00:33;;;;;;;7.63;6.93;;;17.80;99.90;;;;;;5014254;28;20416;-63
2023/07/06 05:03:03;;;;;;;9.80;8.90;;;17.70;99.90;;;;;;5030350;28;20433;-63
2023/07/06 05:05:32;;;;;;;6.50;5.90;;;17.60;99.90;;;;;;5024848;28;20788;-63
2023/07/06 05:07:58;;;;;;;8.33;5.27;;;17.50;99.90;;;;;;5031194;28;20424;-67
2023/07/06 05:10:25;;;;;;;5.93;5.33;;;17.40;99.90;;;;;;5014489;28;20429;-63
2023/07/06 05:12:52;;;;;;;6.07;5.47;;;17.40;99.90;;;;;;5025980;28;20432;-64
2023/07/06 05:15:18;;;;;;;5.60;4.50;;;17.30;99.90;;;;;;5032530;28;20520;-67
2023/07/06 05:17:43;;;;;;;5.23;4.83;;;17.30;99.90;;;;;;5031592;28;20432;-66
2023/07/06 05:20:16;;;;;;;5.73;5.23;;;17.30;99.90;;;;;;5030172;28;20467;-66
2023/07/06 05:22:47;;;;;;;185.93;127.63;;;17.30;99.90;;;;;;5031937;28;20179;-65
2023/07/06 05:25:13;;;;;;;71.57;52.13;;;17.20;99.90;;;;;;5030300;28;20428;-67
2023/07/06 05:27:39;;;;;;;6.90;6.20;;;17.20;99.90;;;;;;5031372;28;20437;-66
2023/07/06 05:30:05;;;;;;;5.00;4.60;;;17.20;99.90;;;;;;5013793;28;20178;-67
2023/07/06 05:32:32;;;;;;;5.17;4.67;;;17.20;99.90;;;;;;5030062;28;20425;-79
2023/07/06 05:34:57;;;;;;;4.60;4.20;;;17.20;99.90;;;;;;5030010;28;20464;-78
2023/07/06 05:37:23;;;;;;;6.43;6.03;;;17.30;99.90;;;;;;5014276;28;20475;-78
2023/07/06 05:39:49;;;;;;;5.33;4.97;;;17.30;99.90;;;;;;5029577;28;20544;-77
2023/07/06 05:42:17;;;;;;;7.70;4.17;;;17.40;99.90;;;;;;5050345;28;20511;-79
2023/07/06 05:44:44;;;;;;;5.10;3.93;;;17.40;99.90;;;;;;5051819;28;20170;-78
2023/07/06 05:47:10;;;;;;;7.67;6.90;;;17.30;99.90;;;;;;5051004;28;20527;-79
2023/07/06 05:49:36;;;;;;;10.77;9.80;;;17.30;99.90;;;;;;5052072;28;20495;-79
2023/07/06 05:52:03;;;;;;;5.60;4.20;;;17.30;99.90;;;;;;5051715;28;20174;-79
2023/07/06 05:54:29;;;;;;;5.27;4.30;;;17.30;99.90;;;;;;5052227;28;20882;-78
2023/07/06 05:56:55;;;;;;;7.87;5.47;;;17.30;99.90;;;;;;5051676;28;20445;-78
2023/07/06 05:59:24;;;;;;;5.27;4.77;;;17.30;99.90;;;;;;5034259;28;20174;-78
2023/07/06 06:01:50;;;;;;;6.80;6.30;;;17.30;99.90;;;;;;5051737;28;20416;-77
2023/07/06 06:04:17;;;;;;;5.90;5.40;;;17.30;99.90;;;;;;5052388;28;20458;-78
2023/07/06 06:06:48;;;;;;;7.10;5.60;;;17.40;99.90;;;;;;5052228;28;20447;-78
2023/07/06 06:09:15;;;;;;;4.23;3.80;;;17.40;99.90;;;;;;5052828;28;20397;-78
2023/07/06 06:11:41;;;;;;;5.10;3.80;;;17.50;99.90;;;;;;5034329;28;20408;-78
2023/07/06 06:14:07;;;;;;;5.27;3.40;;;17.50;99.90;;;;;;5051200;28;20969;-75
2023/07/06 06:16:33;;;;;;;8.37;4.73;;;17.60;99.90;;;;;;5051784;28;20440;-79
2023/07/06 06:19:01;;;;;;;4.57;4.20;;;17.60;99.90;;;;;;5051828;28;20456;-78
2023/07/06 06:21:29;;;;;;;6.43;5.93;;;17.60;99.90;;;;;;5052131;28;20196;-78
2023/07/06 06:23:56;;;;;;;4.13;3.63;;;17.60;99.90;;;;;;5051434;28;20511;-78
2023/07/06 06:26:21;;;;;;;3.90;3.50;;;17.60;99.90;;;;;;5052055;28;20480;-78
2023/07/06 06:28:47;;;;;;;5.27;3.80;;;17.50;99.90;;;;;;5051658;28;20499;-78
2023/07/06 06:31:14;;;;;;;5.43;5.10;;;17.60;99.90;;;;;;5051726;28;20173;-75
2023/07/06 06:33:40;;;;;;;6.37;5.77;;;17.50;99.90;;;;;;5051923;28;20408;-78
2023/07/06 06:36:07;;;;;;;9.17;8.07;;;17.40;99.90;;;;;;5033517;28;20435;-79
2023/07/06 06:38:34;;;;;;;6.67;5.90;;;17.50;99.90;;;;;;5052043;28;20173;-78
2023/07/06 06:41:07;;;;;;;6.33;5.83;;;17.60;99.90;;;;;;5036235;28;20415;-78
2023/07/06 06:43:37;;;;;;;5.03;4.67;;;17.70;99.90;;;;;;5055824;28;20412;-78
2023/07/06 06:46:03;;;;;;;8.17;4.87;;;17.80;99.90;;;;;;5055063;28;20513;-79
2023/07/06 06:48:29;;;;;;;4.27;3.33;;;17.90;99.90;;;;;;5055276;28;20408;-79
2023/07/06 06:50:56;;;;;;;3.93;3.50;;;18.00;99.90;;;;;;5054845;28;20397;-79
2023/07/06 06:53:22;;;;;;;6.10;3.17;;;18.00;99.90;;;;;;5055470;28;20404;-78
2023/07/06 06:55:48;;;;;;;3.00;2.80;;;18.10;99.90;;;;;;5055319;28;20452;-79
2023/07/06 06:58:15;;;;;;;4.40;4.00;;;18.20;99.90;;;;;;5054693;28;20990;-79
2023/07/06 07:00:41;;;;;;;3.60;3.10;;;18.30;99.90;;;;;;5055628;28;20260;-79
2023/07/06 07:03:10;;;;;;;5.97;5.47;;;18.30;99.90;;;;;;5054324;28;20443;-78
2023/07/06 07:05:36;;;;;;;6.20;5.10;;;18.40;99.90;;;;;;5037238;28;20413;-79
2023/07/06 07:08:02;;;;;;;3.80;3.50;;;18.50;99.90;;;;;;5054220;28;20462;-79
2023/07/06 07:10:29;;;;;;;3.20;2.90;;;18.60;99.90;;;;;;5055009;28;20412;-79
2023/07/06 07:12:55;;;;;;;5.33;4.97;;;18.80;99.90;;;;;;5054386;28;20407;-79
2023/07/06 07:15:21;;;;;;;3.80;2.90;;;18.90;99.90;;;;;;5054774;28;20476;-79
2023/07/06 07:17:47;;;;;;;4.57;3.37;;;18.90;99.90;;;;;;5054971;28;20419;-79
2023/07/06 07:20:14;;;;;;;5.13;3.87;;;19.00;99.90;;;;;;5054611;28;20413;-79
2023/07/06 07:22:40;;;;;;;5.60;5.20;;;19.20;99.90;;;;;;5055011;28;20169;-78
2023/07/06 07:25:07;;;;;;;4.40;4.10;;;19.30;99.90;;;;;;5054211;28;20419;-79
2023/07/06 07:27:35;;;;;;;7.47;5.30;;;19.40;99.90;;;;;;5054842;28;20429;-79
2023/07/06 07:30:05;;;;;;;5.47;3.70;;;19.50;99.90;;;;;;5054136;28;20412;-79
2023/07/06 07:32:32;;;;;;;3.10;2.73;;;19.50;99.90;;;;;;5054686;28;20412;-78
2023/07/06 07:34:58;;;;;;;4.00;3.63;;;19.60;99.90;;;;;;5054046;28;20443;-78
2023/07/06 07:37:27;;;;;;;3.90;3.50;;;19.80;99.90;;;;;;5054279;28;20408;-78
2023/07/06 07:39:54;;;;;;;5.10;3.40;;;19.90;99.90;;;;;;5054002;28;20396;-74
2023/07/06 07:42:20;;;;;;;4.40;3.60;;;20.00;99.90;;;;;;5054216;28;20412;-79
2023/07/06 07:44:46;;;;;;;3.60;3.40;;;20.10;99.90;;;;;;5054222;28;20915;-78
2023/07/06 07:47:13;;;;;;;3.63;3.27;;;20.20;97.40;;;;;;5052933;28;20423;-79
2023/07/06 07:49:38;;;;;;;3.93;3.63;;;20.30;97.60;;;;;;5054029;28;20227;-79
2023/07/06 07:52:05;;;;;;;4.00;3.27;;;20.40;97.70;;;;;;5053408;28;20409;-78
2023/07/06 07:54:31;;;;;;;3.50;3.20;;;20.60;97.20;;;;;;5054167;28;20227;-79
2023/07/06 07:56:57;;;;;;;3.90;3.60;;;20.70;96.10;;;;;;5053617;28;20416;-78
2023/07/06 07:59:25;;;;;;;3.67;3.37;;;20.90;96.30;;;;;;5036368;28;20223;-79
2023/07/06 08:01:52;;;;;;;3.40;3.20;;;21.00;95.90;;;;;;5054101;28;20412;-79
2023/07/06 08:04:18;;;;;;;4.20;3.90;;;21.10;95.00;;;;;;5053469;28;20411;-79
2023/07/06 08:06:44;;;;;;;5.57;5.13;;;21.20;93.80;;;;;;5036110;28;20421;-80
2023/07/06 08:09:09;;;;;;;3.80;3.40;;;21.30;94.50;;;;;;5053431;28;20400;-79
2023/07/06 08:11:41;;;;;;;4.83;4.47;;;21.30;93.50;;;;;;5053670;28;20165;-79
2023/07/06 08:14:10;;;;;;;5.40;5.03;;;21.40;93.10;;;;;;5053060;28;20283;-79
2023/07/06 08:16:36;;;;;;;4.10;3.80;;;21.40;93.50;;;;;;5054088;28;20436;-79
2023/07/06 08:19:05;;;;;;;5.10;4.80;;;21.50;93.00;;;;;;5053219;28;20533;-79
2023/07/06 08:21:31;;;;;;;4.90;3.70;;;21.60;93.60;;;;;;5036209;28;20431;-79
2023/07/06 08:23:58;;;;;;;5.40;5.00;;;21.60;93.50;;;;;;5053025;28;20491;-78
2023/07/06 08:26:24;;;;;;;3.07;2.80;;;21.70;92.80;;;;;;5053695;28;20396;-80
2023/07/06 08:28:51;;;;;;;5.70;5.30;;;21.80;93.00;;;;;;5053816;28;20412;-80
2023/07/06 08:31:20;;;;;;;4.93;4.63;;;21.90;92.50;;;;;;5053009;28;20412;-79
2023/07/06 08:33:47;;;;;;;3.73;3.30;;;21.90;92.50;;;;;;5053407;28;20499;-79
2023/07/06 08:36:15;;;;;;;7.73;2.80;;;21.90;92.60;;;;;;5052869;28;20878;-79
2023/07/06 08:38:43;;;;;;;4.77;4.40;;;21.90;90.20;;;;;;5053369;28;20483;-79
2023/07/06 08:41:37;;;;;;;4.17;3.77;;;21.90;91.40;;;;;;5052769;28;20852;-79
2023/07/06 08:44:07;;;;;;;3.40;3.20;;;21.90;92.90;;;;;;5052774;28;20495;-79
2023/07/06 08:46:38;;;;;;;4.40;4.10;;;22.10;92.20;;;;;;5052854;28;20408;-80
2023/07/06 08:49:24;;;;;;;4.00;3.70;;;22.10;90.80;;;;;;5052569;28;20400;-78
2023/07/06 08:51:52;;;;;;;7.13;3.87;;;22.00;90.60;;;;;;5053569;28;20866;-80
2023/07/06 08:54:25;;;;;;;3.40;3.10;;;22.20;91.40;;;;;;5052516;28;20460;-79
2023/07/06 08:56:52;;;;;;;3.50;3.30;;;22.30;91.20;;;;;;5053191;28;20396;-80
2023/07/06 08:59:40;;;;;;;3.17;2.97;;;22.50;90.10;;;;;;5052521;28;20841;-79
2023/07/06 09:02:17;;;;;;;7.00;6.60;;;22.40;91.00;;;;;;5052080;28;20389;-79
2023/07/06 09:04:46;;;;;;;3.80;3.50;;;22.60;91.50;;;;;;5035044;28;20808;-79
2023/07/06 09:07:17;;;;;;;3.27;3.07;;;22.80;90.00;;;;;;5052325;28;20415;-79
2023/07/06 09:09:46;;;;;;;4.30;4.07;;;22.90;90.20;;;;;;5053027;28;20404;-79
2023/07/06 09:12:24;;;;;;;3.40;3.10;;;22.90;90.20;;;;;;5052248;28;20462;-79
2023/07/06 09:14:55;;;;;;;2.63;2.43;;;23.00;89.60;;;;;;5034666;28;20951;-79
2023/07/06 09:17:21;;;;;;;3.60;3.40;;;23.10;89.60;;;;;;5052212;28;20401;-79
2023/07/06 09:19:48;;;;;;;5.07;3.00;;;23.10;90.60;;;;;;5053047;28;20420;-79
2023/07/06 09:22:17;;;;;;;3.77;3.50;;;23.20;88.60;;;;;;5034292;28;20417;-78
2023/07/06 09:24:46;;;;;;;5.20;4.80;;;23.20;87.70;;;;;;5052467;28;20468;-79
2023/07/06 09:27:23;;;;;;;3.10;2.90;;;23.30;90.20;;;;;;5052077;28;20455;-79
2023/07/06 09:30:01;;;;;;;12.13;10.60;;;23.40;89.40;;;;;;5052727;28;20483;-78
2023/07/06 09:32:29;;;;;;;4.07;3.77;;;23.50;88.80;;;;;;5052586;28;20447;-77
2023/07/06 09:35:01;;;;;;;4.27;3.80;;;23.50;87.70;;;;;;5052542;28;20459;-78
2023/07/06 09:37:27;;;;;;;4.57;3.60;;;23.60;87.40;;;;;;5052284;28;20900;-78
2023/07/06 09:40:10;;;;;;;4.53;3.30;;;23.60;86.10;;;;;;5052592;28;20491;-79
2023/07/06 09:42:36;;;;;;;3.77;3.53;;;23.70;87.80;;;;;;5034729;28;20176;-78
2023/07/06 09:45:19;;;;;;;4.00;2.43;;;23.60;84.40;;;;;;5051952;28;20412;-77
2023/07/06 09:47:52;;;;;;;4.40;4.10;;;23.60;86.20;;;;;;5052457;28;20770;-78
2023/07/06 09:50:22;;;;;;;5.10;4.60;;;23.80;85.00;;;;;;5051917;28;20392;-78
2023/07/06 09:52:48;;;;;;;5.20;2.40;;;23.90;85.30;;;;;;5052377;28;20396;-79
2023/07/06 09:55:29;;;;;;;4.80;4.40;;;23.90;83.90;;;;;;5051701;28;20447;-78
2023/07/06 09:57:59;;;;;;;2.83;2.63;;;24.00;84.20;;;;;;5052406;28;20450;-78
2023/07/06 10:00:35;;;;;;;4.47;4.20;;;24.10;82.70;;;;;;5051713;28;20436;-77
2023/07/06 10:03:19;;;;;;;3.57;3.00;;;24.30;84.40;;;;;;5052040;28;20442;-64
2023/07/06 10:05:59;;;;;;;4.23;3.73;;;24.40;84.30;;;;;;5052812;28;20486;-79
2023/07/06 10:08:33;;;;;;;3.00;2.83;;;24.20;80.70;;;;;;5051743;28;20487;-79
2023/07/06 10:11:28;;;;;;;4.70;3.80;;;24.30;80.60;;;;;;5052297;28;20453;-78
2023/07/06 10:14:16;;;;;;;5.30;4.80;;;24.50;81.40;;;;;;5034322;28;20764;-79
2023/07/06 10:17:07;;;;;;;4.43;4.03;;;24.60;80.50;;;;;;5055987;28;20825;-78
2023/07/06 10:20:03;;;;;;;3.17;2.97;;;24.40;77.10;;;;;;5056076;28;20424;-79
2023/07/06 10:22:57;;;;;;;2.70;2.50;;;24.40;77.30;;;;;;5038422;28;20934;-77
2023/07/06 10:25:33;;;;;;;3.73;2.97;;;24.40;77.30;;;;;;5055396;28;20420;-78
2023/07/06 10:28:28;;;;;;;4.00;3.70;;;24.60;78.30;;;;;;5055771;28;20883;-77
2023/07/06 10:30:57;;;;;;;8.47;7.77;;;24.70;79.10;;;;;;5055575;28;20968;-78
2023/07/06 10:33:32;;;;;;;6.33;5.00;;;24.80;78.40;;;;;;5055153;28;20730;-77
2023/07/06 10:35:59;;;;;;;3.50;3.20;;;24.90;76.70;;;;;;5055803;28;20812;-78
2023/07/06 10:38:25;;;;;;;4.77;3.60;;;25.00;77.80;;;;;;5055173;28;20735;-79
2023/07/06 10:41:10;;;;;;;4.37;3.30;;;25.10;77.40;;;;;;5037891;28;20404;-79
2023/07/06 10:43:40;;;;;;;4.13;3.10;;;25.30;77.10;;;;;;5055585;28;20432;-79
2023/07/06 10:46:52;;;;;;;3.00;2.73;;;25.30;73.70;;;;;;5055221;28;20412;-77
2023/07/06 10:49:23;;;;;;;3.57;2.93;;;25.40;73.40;;;;;;5035921;28;20818;-79
2023/07/06 10:51:55;;;;;;;3.57;3.27;;;25.30;72.90;;;;;;5055649;28;20783;-78
2023/07/06 10:54:21;;;;;;;2.73;2.53;;;25.30;72.00;;;;;;5054854;28;20435;-79
2023/07/06 10:57:11;;;;;;;4.77;2.97;;;25.30;76.10;;;;;;5055363;28;20462;-79
2023/07/06 10:59:44;;;;;;;2.90;2.80;;;25.30;75.20;;;;;;5055645;28;20172;-78
2023/07/06 11:02:24;;;;;;;5.57;5.27;;;25.20;73.50;;;;;;5054821;28;20535;-78
2023/07/06 11:05:07;;;;;;;3.83;3.57;;;25.20;72.50;;;;;;5055275;28;20483;-78
2023/07/06 11:07:52;;;;;;;3.87;3.47;;;25.10;71.00;;;;;;5054824;28;20904;-78
2023/07/06 11:10:39;;;;;;;3.90;3.60;;;25.10;74.00;;;;;;5054490;28;20408;-78
2023/07/06 11:13:04;;;;;;;3.70;3.40;;;24.80;74.10;;;;;;5055081;28;20404;-78
2023/07/06 11:15:43;;;;;;;4.70;4.40;;;24.60;74.50;;;;;;5054381;28;20625;-78
2023/07/06 11:18:24;;;;;;;3.53;2.67;;;24.70;76.10;;;;;;5054526;28;20440;-79
2023/07/06 11:20:54;;;;;;;2.73;2.53;;;24.70;75.00;;;;;;5055067;28;20912;-78
2023/07/06 11:23:35;;;;;;;3.07;2.77;;;24.80;81.50;;;;;;5053917;28;20401;-79
2023/07/06 11:26:13;;;;;;;3.40;3.20;;;25.00;80.30;;;;;;5054379;28;20388;-78
2023/07/06 11:28:40;;;;;;;4.30;4.00;;;25.10;75.00;;;;;;5054958;28;20545;-78
2023/07/06 11:31:23;;;;;;;4.80;4.40;;;25.00;74.30;;;;;;5055043;28;20424;-78
2023/07/06 11:34:28;;;;;;;5.20;3.80;;;24.90;74.70;;;;;;5055118;28;20394;-78
2023/07/06 11:37:12;;;;;;;3.33;3.13;;;24.90;74.70;;;;;;5054707;28;20754;-78
2023/07/06 11:40:15;;;;;;;4.33;4.10;;;25.10;75.70;;;;;;5054737;28;20396;-78
2023/07/06 11:42:54;;;;;;;3.23;3.03;;;25.10;68.40;;;;;;5054700;28;20392;-79
2023/07/06 11:45:38;;;;;;;3.30;3.00;;;25.00;68.90;;;;;;5053940;28;20413;-78
2023/07/06 11:48:40;;;;;;;3.10;2.90;;;24.90;71.40;;;;;;5054502;28;20400;-79
2023/07/06 11:51:08;;;;;;;4.93;4.70;;;24.70;72.00;;;;;;5054208;28;20790;-79
2023/07/06 11:53:54;;;;;;;3.70;3.50;;;24.70;71.40;;;;;;5054488;28;20736;-79
2023/07/06 11:56:35;;;;;;;4.63;4.33;;;24.70;72.10;;;;;;5035925;28;20791;-78
2023/07/06 11:59:04;;;;;;;4.00;3.70;;;24.70;73.10;;;;;;5054509;28;20392;-79
2023/07/06 12:01:45;;;;;;;3.30;3.10;;;24.80;73.10;;;;;;5053520;28;20412;-78
2023/07/06 12:04:23;;;;;;;4.23;3.93;;;24.70;71.90;;;;;;5053571;28;20439;-79
2023/07/06 12:06:50;;;;;;;2.67;2.40;;;24.70;73.00;;;;;;5054501;28;20816;-79
2023/07/06 12:09:23;;;;;;;4.00;3.80;;;24.80;73.40;;;;;;5053480;28;20491;-79
2023/07/06 12:11:58;;;;;;;3.27;3.07;;;24.90;74.80;;;;;;5054485;28;20396;-79
2023/07/06 12:14:24;;;;;;;2.50;2.30;;;24.80;71.30;;;;;;5052804;28;20431;-79
2023/07/06 12:16:51;;;;;;;3.60;3.40;;;24.70;69.80;;;;;;5053925;28;20405;-79
2023/07/06 12:19:17;;;;;;;2.80;2.70;;;24.70;73.00;;;;;;5052620;28;20181;-79
2023/07/06 12:21:52;;;;;;;2.80;2.47;;;24.70;76.70;;;;;;5053923;28;20507;-79
2023/07/06 12:24:21;;;;;;;3.10;2.73;;;24.80;71.60;;;;;;5053278;28;20411;-78
2023/07/06 12:26:57;;;;;;;3.17;2.97;;;24.80;68.70;;;;;;5036015;28;20436;-80
2023/07/06 12:29:26;;;;;;;3.37;2.50;;;24.90;67.60;;;;;;5053087;28;20388;-79
2023/07/06 12:31:54;;;;;;;3.87;3.77;;;24.90;70.00;;;;;;5053562;28;20400;-79
2023/07/06 12:34:28;;;;;;;2.37;2.20;;;25.00;69.10;;;;;;5052873;28;20444;-79
2023/07/06 12:36:56;;;;;;;5.67;3.73;;;25.10;71.50;;;;;;5053219;28;20404;-77
2023/07/06 12:39:23;;;;;;;3.77;3.57;;;25.20;68.90;;;;;;5052497;28;20808;-80
2023/07/06 12:41:51;;;;;;;2.60;1.97;;;25.40;72.40;;;;;;5053427;28;20400;-79
2023/07/06 12:44:18;;;;;;;3.20;2.93;;;25.40;69.40;;;;;;5052701;28;20417;-78
2023/07/06 12:46:54;;;;;;;2.80;2.70;;;25.50;67.70;;;;;;5053286;28;20843;-79
2023/07/06 12:49:22;;;;;;;2.20;2.10;;;25.40;66.30;;;;;;5052687;28;20411;-79
2023/07/06 12:51:54;;;;;;;4.50;4.20;;;25.30;65.80;;;;;;5053205;28;20407;-79
2023/07/06 12:54:29;;;;;;;2.97;1.93;;;25.30;69.00;;;;;;5052444;28;20482;-79
2023/07/06 12:57:17;;;;;;;3.80;3.60;;;25.40;70.00;;;;;;5053295;28;20416;-79
2023/07/06 12:59:42;;;;;;;2.40;1.90;;;25.50;66.00;;;;;;5053220;28;20438;-79
2023/07/06 13:02:20;;;;;;;2.97;2.77;;;25.60;65.60;;;;;;5053012;28;20412;-78
2023/07/06 13:04:48;;;;;;;3.10;2.90;;;25.50;65.20;;;;;;5053033;28;20173;-79